createdAt,value
2018-07-30T00:00:45.012Z,99.99
2018-07-30T00:01:44.750Z,99.99
2018-07-30T00:02:44.752Z,99.99
2018-07-30T00:03:45.005Z,99.99
2018-07-30T00:04:45.003Z,99.99
2018-07-30T00:05:45.004Z,99.99
2018-07-30T00:06:45.004Z,99.99
2018-07-30T00:07:45.009Z,99.99
2018-07-30T00:08:45.001Z,99.99
2018-07-30T00:09:45.007Z,99.99
2018-07-30T00:10:45.003Z,99.99
2018-07-30T00:11:44.999Z,99.99
2018-07-30T00:12:45.000Z,99.99
2018-07-30T00:13:44.998Z,99.99
2018-07-30T00:14:45.011Z,99.99
2018-07-30T00:15:45.009Z,99.99
2018-07-30T00:16:45.001Z,99.99
2018-07-30T00:17:45.000Z,99.99
2018-07-30T00:18:44.999Z,99.99
2018-07-30T00:19:44.996Z,99.99
2018-07-30T00:20:44.996Z,99.99
2018-07-30T00:21:44.740Z,99.99
2018-07-30T00:22:44.998Z,99.99
2018-07-30T00:23:44.992Z,99.99
2018-07-30T00:24:44.994Z,99.99
2018-07-30T00:25:44.993Z,99.99
2018-07-30T00:26:44.991Z,99.99
2018-07-30T00:27:44.990Z,99.99
2018-07-30T00:28:44.991Z,99.99
2018-07-30T00:29:44.989Z,99.99
2018-07-30T00:30:44.736Z,99.99
2018-07-30T00:31:45.010Z,99.99
2018-07-30T00:32:45.014Z,99.99
2018-07-30T00:33:44.986Z,99.99
2018-07-30T00:34:44.987Z,99.99
2018-07-30T00:35:44.731Z,99.99
2018-07-30T00:36:44.987Z,98.68
2018-07-30T00:37:44.983Z,99.35
2018-07-30T00:38:44.985Z,98.39
2018-07-30T00:39:44.985Z,99.26
2018-07-30T00:40:44.729Z,99.99
2018-07-30T00:41:44.728Z,99.99
2018-07-30T00:42:44.983Z,99.99
2018-07-30T00:43:44.983Z,99.99
2018-07-30T00:44:45.033Z,99.99
2018-07-30T00:45:44.990Z,99.99
2018-07-30T00:46:44.984Z,99.99
2018-07-30T00:47:44.726Z,99.99
2018-07-30T00:48:44.994Z,99.99
2018-07-30T00:49:44.985Z,99.99
2018-07-30T00:50:44.987Z,99.99
2018-07-30T00:51:44.986Z,99.99
2018-07-30T00:52:44.723Z,99.99
2018-07-30T00:53:44.978Z,99.99
2018-07-30T00:54:44.981Z,99.99
2018-07-30T00:55:44.981Z,99.99
2018-07-30T00:56:44.736Z,99.99
2018-07-30T00:57:44.981Z,99.99
2018-07-30T00:58:44.979Z,99.99
2018-07-30T00:59:44.980Z,99.99
2018-07-30T01:00:44.984Z,99.99
2018-07-30T01:01:44.982Z,99.99
2018-07-30T01:02:44.980Z,99.99
2018-07-30T01:03:44.977Z,99.99
2018-07-30T01:04:44.976Z,99.99
2018-07-30T01:05:44.974Z,99.99
2018-07-30T01:06:44.974Z,99.99
2018-07-30T01:07:45.250Z,99.99
2018-07-30T01:08:44.979Z,99.99
2018-07-30T01:09:44.974Z,99.99
2018-07-30T01:10:44.972Z,99.99
2018-07-30T01:11:44.970Z,99.99
2018-07-30T01:12:44.971Z,99.99
2018-07-30T01:13:45.007Z,99.99
2018-07-30T01:14:44.970Z,99.99
2018-07-30T01:15:44.970Z,99.99
2018-07-30T01:16:44.970Z,99.99
2018-07-30T01:17:44.967Z,99.99
2018-07-30T01:18:44.712Z,99.99
2018-07-30T01:19:44.711Z,99.99
2018-07-30T01:20:44.966Z,99.99
2018-07-30T01:21:45.251Z,99.99
2018-07-30T01:22:44.965Z,99.99
2018-07-30T01:23:44.978Z,99.99
2018-07-30T01:24:44.964Z,99.99
2018-07-30T01:25:44.962Z,99.99
2018-07-30T01:26:44.968Z,99.99
2018-07-30T01:27:44.965Z,99.99
2018-07-30T01:28:44.960Z,99.99
2018-07-30T01:29:44.708Z,99.99
2018-07-30T01:30:44.705Z,99.99
2018-07-30T01:31:44.959Z,99.99
2018-07-30T01:32:44.961Z,99.99
2018-07-30T01:33:44.960Z,99.99
2018-07-30T01:34:44.957Z,99.99
2018-07-30T01:35:44.702Z,99.99
2018-07-30T01:36:44.959Z,99.99
2018-07-30T01:37:44.957Z,99.99
2018-07-30T01:38:44.698Z,99.99
2018-07-30T01:39:44.953Z,99.99
2018-07-30T01:40:44.957Z,99.99
2018-07-30T01:41:44.954Z,99.06
2018-07-30T01:42:44.954Z,97.24
2018-07-30T01:43:44.951Z,98.24
2018-07-30T01:44:44.694Z,95.79
2018-07-30T01:45:44.948Z,95.12
2018-07-30T01:46:44.949Z,95.94
2018-07-30T01:47:44.946Z,95.45
2018-07-30T01:48:44.947Z,96.89
2018-07-30T01:49:44.954Z,95.36
2018-07-30T01:50:44.946Z,94.49
2018-07-30T01:51:44.943Z,94.78
2018-07-30T01:52:44.946Z,96.61
2018-07-30T01:53:44.943Z,98.82
2018-07-30T01:54:44.944Z,99.99
2018-07-30T01:55:44.946Z,99.99
2018-07-30T01:56:44.940Z,98
2018-07-30T01:57:44.684Z,99.99
2018-07-30T01:58:44.683Z,99.99
2018-07-30T01:59:44.941Z,99.99
2018-07-30T02:00:44.938Z,99.99
2018-07-30T02:01:44.937Z,99.26
2018-07-30T02:02:44.936Z,98.19
2018-07-30T02:03:44.938Z,98.1
2018-07-30T02:04:44.936Z,99.16
2018-07-30T02:05:44.934Z,99.26
2018-07-30T02:06:44.933Z,99.99
2018-07-30T02:07:44.933Z,98.29
2018-07-30T02:08:44.934Z,99.99
2018-07-30T02:09:44.930Z,99.99
2018-07-30T02:10:44.933Z,98.97
2018-07-30T02:11:44.929Z,98.87
2018-07-30T02:12:44.931Z,99.99
2018-07-30T02:13:44.927Z,99.99
2018-07-30T02:14:44.929Z,98.19
2018-07-30T02:15:44.938Z,99.35
2018-07-30T02:16:44.926Z,99.99
2018-07-30T02:17:44.928Z,99.99
2018-07-30T02:18:44.929Z,99.99
2018-07-30T02:19:44.924Z,99.99
2018-07-30T02:20:44.923Z,99.99
2018-07-30T02:21:44.669Z,99.99
2018-07-30T02:22:44.664Z,99.99
2018-07-30T02:23:44.664Z,99.99
2018-07-30T02:24:44.663Z,99.99
2018-07-30T02:25:44.918Z,99.99
2018-07-30T02:26:44.920Z,99.99
2018-07-30T02:27:44.915Z,99.99
2018-07-30T02:28:44.916Z,99.99
2018-07-30T02:29:44.914Z,99.99
2018-07-30T02:30:44.942Z,99.99
2018-07-30T02:31:44.917Z,99.99
2018-07-30T02:32:44.657Z,99.99
2018-07-30T02:33:44.914Z,99.99
2018-07-30T02:34:44.914Z,99.99
2018-07-30T02:35:44.913Z,99.99
2018-07-30T02:36:44.914Z,99.99
2018-07-30T02:37:44.913Z,99.99
2018-07-30T02:38:44.912Z,99.99
2018-07-30T02:39:44.910Z,99.99
2018-07-30T02:40:44.910Z,99.99
2018-07-30T02:41:44.918Z,99.99
2018-07-30T02:42:44.914Z,99.99
2018-07-30T02:43:44.909Z,99.99
2018-07-30T02:44:44.790Z,99.99
2018-07-30T02:45:44.908Z,99.99
2018-07-30T02:46:44.903Z,99.99
2018-07-30T02:47:44.652Z,99.99
2018-07-30T02:48:44.904Z,99.99
2018-07-30T02:49:44.908Z,99.99
2018-07-30T02:50:44.645Z,99.99
2018-07-30T02:51:44.935Z,99.99
2018-07-30T02:52:44.648Z,99.99
2018-07-30T02:53:44.903Z,99.99
2018-07-30T02:54:44.899Z,99.99
2018-07-30T02:55:44.650Z,99.99
2018-07-30T02:56:44.901Z,99.99
2018-07-30T02:57:44.694Z,99.99
2018-07-30T02:58:44.901Z,99.99
2018-07-30T02:59:44.898Z,99.99
2018-07-30T03:00:44.638Z,99.99
2018-07-30T03:01:44.895Z,99.99
2018-07-30T03:02:44.894Z,99.99
2018-07-30T03:03:44.893Z,99.99
2018-07-30T03:04:44.890Z,99.99
2018-07-30T03:05:44.898Z,99.99
2018-07-30T03:06:44.892Z,99.99
2018-07-30T03:07:44.897Z,99.99
2018-07-30T03:08:44.888Z,99.99
2018-07-30T03:09:44.889Z,99.99
2018-07-30T03:10:44.887Z,99.99
2018-07-30T03:11:44.890Z,99.99
2018-07-30T03:12:44.887Z,99.99
2018-07-30T03:13:44.889Z,99.99
2018-07-30T03:14:44.884Z,99.99
2018-07-30T03:15:44.884Z,99.99
2018-07-30T03:16:44.884Z,99.99
2018-07-30T03:17:44.625Z,99.99
2018-07-30T03:18:44.882Z,99.99
2018-07-30T03:19:44.883Z,99.99
2018-07-30T03:20:44.876Z,99.99
2018-07-30T03:21:44.880Z,99.99
2018-07-30T03:22:44.876Z,99.99
2018-07-30T03:23:44.620Z,99.99
2018-07-30T03:24:44.876Z,99.99
2018-07-30T03:25:44.874Z,99.99
2018-07-30T03:26:44.875Z,99.99
2018-07-30T03:27:44.619Z,99.99
2018-07-30T03:28:44.952Z,99.99
2018-07-30T03:29:44.874Z,99.99
2018-07-30T03:30:44.875Z,99.99
2018-07-30T03:31:44.876Z,99.99
2018-07-30T03:32:44.873Z,99.99
2018-07-30T03:33:44.868Z,99.99
2018-07-30T03:34:44.868Z,99.99
2018-07-30T03:35:44.870Z,99.99
2018-07-30T03:36:44.866Z,99.99
2018-07-30T03:37:44.609Z,99.99
2018-07-30T03:38:44.867Z,99.99
2018-07-30T03:39:44.608Z,99.99
2018-07-30T03:40:44.606Z,99.99
2018-07-30T03:41:44.867Z,99.99
2018-07-30T03:42:44.865Z,99.99
2018-07-30T03:43:44.862Z,99.99
2018-07-30T03:44:44.859Z,99.99
2018-07-30T03:45:44.862Z,99.99
2018-07-30T03:46:44.857Z,99.99
2018-07-30T03:47:44.859Z,99.99
2018-07-30T03:48:44.600Z,99.99
2018-07-30T03:49:44.859Z,99.99
2018-07-30T03:50:44.854Z,99.99
2018-07-30T03:51:44.598Z,99.99
2018-07-30T03:52:44.595Z,99.99
2018-07-30T03:53:44.852Z,99.99
2018-07-30T03:54:45.005Z,99.99
2018-07-30T03:55:44.849Z,99.99
2018-07-30T03:56:44.856Z,99.99
2018-07-30T03:57:44.850Z,99.99
2018-07-30T03:58:44.850Z,99.99
2018-07-30T03:59:44.844Z,99.99
2018-07-30T04:00:44.847Z,99.99
2018-07-30T04:01:44.846Z,99.99
2018-07-30T04:02:44.842Z,99.99
2018-07-30T04:03:44.590Z,99.99
2018-07-30T04:04:44.585Z,99.99
2018-07-30T04:05:44.894Z,99.99
2018-07-30T04:06:44.844Z,99.99
2018-07-30T04:07:44.889Z,99.99
2018-07-30T04:08:44.838Z,99.99
2018-07-30T04:09:44.837Z,99.99
2018-07-30T04:10:44.834Z,99.99
2018-07-30T04:11:44.836Z,99.99
2018-07-30T04:12:44.929Z,99.99
2018-07-30T04:13:44.828Z,99.99
2018-07-30T04:14:44.839Z,99.99
2018-07-30T04:15:44.572Z,99.99
2018-07-30T04:16:44.830Z,99.99
2018-07-30T04:17:44.827Z,99.99
2018-07-30T04:18:44.825Z,99.99
2018-07-30T04:19:44.827Z,99.99
2018-07-30T04:20:44.827Z,99.99
2018-07-30T04:21:44.821Z,99.99
2018-07-30T04:22:44.825Z,99.99
2018-07-30T04:23:44.820Z,99.99
2018-07-30T04:24:44.824Z,99.99
2018-07-30T04:25:44.819Z,99.99
2018-07-30T04:26:44.815Z,99.99
2018-07-30T04:27:44.817Z,99.99
2018-07-30T04:28:44.558Z,99.99
2018-07-30T04:29:44.813Z,99.99
2018-07-30T04:30:44.594Z,99.99
2018-07-30T04:31:44.813Z,99.99
2018-07-30T04:32:44.807Z,99.99
2018-07-30T04:33:44.811Z,99.99
2018-07-30T04:34:44.808Z,99.99
2018-07-30T04:35:44.803Z,99.99
2018-07-30T04:36:44.804Z,99.99
2018-07-30T04:37:44.804Z,99.99
2018-07-30T04:38:44.799Z,99.99
2018-07-30T04:39:44.798Z,99.99
2018-07-30T04:40:44.807Z,99.99
2018-07-30T04:41:44.798Z,99.99
2018-07-30T04:42:44.798Z,99.99
2018-07-30T04:43:44.854Z,99.99
2018-07-30T04:44:44.796Z,99.99
2018-07-30T04:45:44.534Z,99.99
2018-07-30T04:46:44.791Z,99.99
2018-07-30T04:47:44.788Z,99.99
2018-07-30T04:48:44.790Z,99.99
2018-07-30T04:49:44.785Z,99.99
2018-07-30T04:50:44.527Z,99.99
2018-07-30T04:51:44.783Z,99.99
2018-07-30T04:52:44.782Z,99.99
2018-07-30T04:53:44.523Z,99.99
2018-07-30T04:54:44.780Z,99.99
2018-07-30T04:55:44.787Z,99.99
2018-07-30T04:56:44.775Z,99.99
2018-07-30T04:57:44.773Z,99.99
2018-07-30T04:58:44.774Z,99.99
2018-07-30T04:59:44.774Z,99.99
2018-07-30T05:00:44.769Z,99.99
2018-07-30T05:01:44.776Z,99.99
2018-07-30T05:02:44.768Z,99.99
2018-07-30T05:03:44.800Z,99.99
2018-07-30T05:04:44.508Z,99.99
2018-07-30T05:05:44.767Z,99.99
2018-07-30T05:06:44.763Z,99.99
2018-07-30T05:07:44.761Z,99.99
2018-07-30T05:08:44.765Z,99.99
2018-07-30T05:09:44.501Z,99.99
2018-07-30T05:10:44.757Z,99.99
2018-07-30T05:11:44.755Z,99.99
2018-07-30T05:12:44.764Z,99.99
2018-07-30T05:13:44.753Z,99.99
2018-07-30T05:14:44.752Z,99.99
2018-07-30T05:15:44.498Z,99.99
2018-07-30T05:16:44.497Z,99.99
2018-07-30T05:17:44.494Z,99.99
2018-07-30T05:18:44.492Z,99.99
2018-07-30T05:19:44.747Z,99.99
2018-07-30T05:20:44.751Z,99.99
2018-07-30T05:21:44.488Z,99.99
2018-07-30T05:22:44.489Z,99.99
2018-07-30T05:23:44.742Z,99.99
2018-07-30T05:24:44.743Z,99.99
2018-07-30T05:25:44.742Z,99.99
2018-07-30T05:26:44.738Z,99.99
2018-07-30T05:27:44.740Z,99.99
2018-07-30T05:28:44.741Z,99.99
2018-07-30T05:29:44.740Z,99.99
2018-07-30T05:30:44.736Z,99.99
2018-07-30T05:31:44.914Z,99.99
2018-07-30T05:32:44.734Z,99.99
2018-07-30T05:33:44.738Z,99.99
2018-07-30T05:34:44.732Z,99.99
2018-07-30T05:35:44.731Z,99.99
2018-07-30T05:36:44.730Z,99.99
2018-07-30T05:37:44.729Z,99.99
2018-07-30T05:38:44.732Z,99.99
2018-07-30T05:39:44.473Z,99.99
2018-07-30T05:40:44.727Z,99.99
2018-07-30T05:41:44.729Z,99.99
2018-07-30T05:42:44.823Z,99.99
2018-07-30T05:43:44.509Z,99.99
2018-07-30T05:44:44.469Z,99.99
2018-07-30T05:45:44.468Z,99.99
2018-07-30T05:46:44.725Z,99.99
2018-07-30T05:47:44.730Z,99.99
2018-07-30T05:48:44.466Z,99.99
2018-07-30T05:49:44.723Z,99.99
2018-07-30T05:50:44.723Z,99.99
2018-07-30T05:51:44.731Z,99.99
2018-07-30T05:52:44.733Z,99.99
2018-07-30T05:53:44.464Z,99.99
2018-07-30T05:54:44.468Z,99.99
2018-07-30T05:55:44.722Z,99.99
2018-07-30T05:56:44.721Z,99.99
2018-07-30T05:57:44.722Z,99.99
2018-07-30T05:58:44.723Z,99.99
2018-07-30T05:59:44.499Z,99.99
2018-07-30T06:00:44.722Z,99.99
2018-07-30T06:01:44.721Z,99.99
2018-07-30T06:02:44.724Z,99.99
2018-07-30T06:03:44.722Z,99.99
2018-07-30T06:04:44.462Z,99.99
2018-07-30T06:05:44.719Z,99.99
2018-07-30T06:06:44.723Z,99.99
2018-07-30T06:07:44.462Z,99.99
2018-07-30T06:08:44.721Z,99.99
2018-07-30T06:09:44.933Z,99.99
2018-07-30T06:10:44.720Z,99.99
2018-07-30T06:11:44.720Z,99.99
2018-07-30T06:12:44.722Z,99.99
2018-07-30T06:13:44.464Z,99.99
2018-07-30T06:14:44.463Z,99.99
2018-07-30T06:15:44.722Z,99.99
2018-07-30T06:16:44.725Z,99.99
2018-07-30T06:17:44.724Z,99.99
2018-07-30T06:18:44.719Z,99.99
2018-07-30T06:19:44.730Z,99.99
2018-07-30T06:20:44.724Z,99.99
2018-07-30T06:21:44.722Z,99.99
2018-07-30T06:22:44.726Z,99.99
2018-07-30T06:23:44.724Z,99.99
2018-07-30T06:24:44.723Z,99.99
2018-07-30T06:25:44.469Z,99.99
2018-07-30T06:26:44.728Z,99.99
2018-07-30T06:27:44.725Z,99.99
2018-07-30T06:28:44.724Z,95.45
2018-07-30T06:29:44.725Z,94.48
2018-07-30T06:30:44.729Z,96.12
2018-07-30T06:31:44.477Z,97.57
2018-07-30T06:32:44.729Z,95.93
2018-07-30T06:33:44.472Z,94.29
2018-07-30T06:34:44.732Z,92.45
2018-07-30T06:35:44.728Z,91.97
2018-07-30T06:36:44.730Z,88.39
2018-07-30T06:37:44.733Z,87.47
2018-07-30T06:38:44.734Z,82.06
2018-07-30T06:39:44.734Z,81.48
2018-07-30T06:40:44.736Z,81.87
2018-07-30T06:41:44.737Z,76.39
2018-07-30T06:42:44.480Z,71.56
2018-07-30T06:43:44.481Z,71.94
2018-07-30T06:44:44.482Z,71.88
2018-07-30T06:45:44.741Z,73.14
2018-07-30T06:46:44.745Z,72.75
2018-07-30T06:47:44.494Z,71.92
2018-07-30T06:48:44.749Z,72.11
2018-07-30T06:49:44.745Z,71.47
2018-07-30T06:50:44.750Z,66.24
2018-07-30T06:51:44.750Z,61.62
2018-07-30T06:52:44.750Z,57.22
2018-07-30T06:53:44.754Z,53.17
2018-07-30T06:54:44.761Z,51.04
2018-07-30T06:55:44.757Z,50.19
2018-07-30T06:56:44.508Z,47.91
2018-07-30T06:57:44.766Z,45.14
2018-07-30T06:58:44.517Z,41.89
2018-07-30T06:59:44.770Z,38.42
2018-07-30T07:00:44.777Z,36.9
2018-07-30T07:01:44.777Z,34.41
2018-07-30T07:02:44.782Z,31.9
2018-07-30T07:03:44.530Z,31.71
2018-07-30T07:04:44.792Z,30.87
2018-07-30T07:05:44.797Z,29.41
2018-07-30T07:06:44.544Z,29.52
2018-07-30T07:07:44.807Z,29.14
2018-07-30T07:08:44.556Z,29.17
2018-07-30T07:09:44.818Z,30.66
2018-07-30T07:10:44.577Z,29.2
2018-07-30T07:11:44.580Z,26.07
2018-07-30T07:12:44.581Z,24.7
2018-07-30T07:13:44.853Z,25.98
2018-07-30T07:14:44.854Z,29.92
2018-07-30T07:15:44.862Z,28.16
2018-07-30T07:16:45.055Z,24.81
2018-07-30T07:17:44.887Z,24.43
2018-07-30T07:18:44.884Z,24.52
2018-07-30T07:19:44.635Z,23.93
2018-07-30T07:20:45.031Z,26.01
2018-07-30T07:21:45.285Z,23.64
2018-07-30T07:22:44.923Z,24.33
2018-07-30T07:23:44.978Z,23.16
2018-07-30T07:24:44.947Z,24.33
2018-07-30T07:25:44.948Z,23.26
2018-07-30T07:26:44.953Z,23.46
2018-07-30T07:27:44.972Z,24.54
2018-07-30T07:28:44.716Z,24.06
2018-07-30T07:29:44.986Z,23.27
2018-07-30T07:30:44.997Z,22.09
2018-07-30T07:31:45.001Z,23.48
2018-07-30T07:32:45.010Z,23.58
2018-07-30T07:33:45.270Z,22.41
2018-07-30T07:34:45.034Z,24.77
2018-07-30T07:35:45.046Z,23.59
2018-07-30T07:36:45.056Z,23.49
2018-07-30T07:37:45.061Z,22.91
2018-07-30T07:38:45.077Z,23.4
2018-07-30T07:39:45.091Z,26.56
2018-07-30T07:40:44.843Z,25.59
2018-07-30T07:41:45.103Z,22.52
2018-07-30T07:42:45.118Z,21.83
2018-07-30T07:43:45.130Z,21.64
2018-07-30T07:44:45.187Z,21.55
2018-07-30T07:45:45.147Z,21.85
2018-07-30T07:46:45.201Z,20.67
2018-07-30T07:47:44.912Z,21.85
2018-07-30T07:48:45.183Z,24.52
2018-07-30T07:49:44.936Z,25.03
2018-07-30T07:50:45.395Z,20.87
2018-07-30T07:51:45.226Z,21.17
2018-07-30T07:52:45.225Z,18.9
2018-07-30T07:53:45.240Z,18.9
2018-07-30T07:54:45.253Z,19.68
2018-07-30T07:55:45.260Z,18.1
2018-07-30T07:56:45.269Z,18.3
2018-07-30T07:57:45.284Z,17.91
2018-07-30T07:58:45.038Z,18.2
2018-07-30T07:59:45.049Z,20.89
2018-07-30T08:00:45.318Z,18.51
2018-07-30T08:01:45.329Z,18.21
2018-07-30T08:02:45.340Z,18.2
2018-07-30T08:03:45.349Z,18.8
2018-07-30T08:04:45.103Z,20.09
2018-07-30T08:05:45.371Z,20.39
2018-07-30T08:06:45.124Z,20.68
2018-07-30T08:07:45.392Z,20.87
2018-07-30T08:08:45.400Z,20.67
2018-07-30T08:09:45.736Z,19.95
2018-07-30T08:10:45.422Z,24.29
2018-07-30T08:11:45.436Z,25.15
2018-07-30T08:12:45.185Z,24.64
2018-07-30T08:13:45.456Z,26.3
2018-07-30T08:14:45.207Z,28.06
2018-07-30T08:15:45.216Z,25.57
2018-07-30T08:16:45.483Z,24.18
2018-07-30T08:17:45.490Z,24.55
2018-07-30T08:18:45.244Z,26.98
2018-07-30T08:19:45.513Z,30.4
2018-07-30T08:20:45.264Z,27.74
2018-07-30T08:21:45.529Z,27.92
2018-07-30T08:22:45.546Z,28.2
2018-07-30T08:23:45.551Z,28.78
2018-07-30T08:24:45.555Z,27.78
2018-07-30T08:25:45.564Z,28.75
2018-07-30T08:26:45.315Z,29.22
2018-07-30T08:27:45.580Z,30.79
2018-07-30T08:28:45.595Z,30.4
2018-07-30T08:29:45.597Z,30.2
2018-07-30T08:30:45.351Z,30.97
2018-07-30T08:31:45.613Z,31.26
2018-07-30T08:32:45.621Z,31.56
2018-07-30T08:33:45.634Z,32.73
2018-07-30T08:34:45.383Z,32.43
2018-07-30T08:35:45.647Z,30.87
2018-07-30T08:36:45.653Z,31.36
2018-07-30T08:37:45.666Z,31.46
2018-07-30T08:38:45.412Z,30.77
2018-07-30T08:39:45.676Z,31.36
2018-07-30T08:40:45.689Z,31.54
2018-07-30T08:41:45.701Z,37.12
2018-07-30T08:42:45.700Z,36.63
2018-07-30T08:43:45.708Z,32.53
2018-07-30T08:44:45.715Z,31.85
2018-07-30T08:45:45.467Z,31.64
2018-07-30T08:46:45.734Z,32.21
2018-07-30T08:47:45.794Z,32.48
2018-07-30T08:48:45.845Z,33.36
2018-07-30T08:49:45.761Z,33.64
2018-07-30T08:50:45.760Z,33.83
2018-07-30T08:51:45.767Z,35.78
2018-07-30T08:52:45.519Z,34.32
2018-07-30T08:53:45.786Z,33.17
2018-07-30T08:54:45.534Z,33.75
2018-07-30T08:55:45.801Z,32.78
2018-07-30T08:56:45.810Z,32.6
2018-07-30T08:57:45.811Z,33.48
2018-07-30T08:58:45.819Z,34.94
2018-07-30T08:59:45.825Z,32.91
2018-07-30T09:00:45.836Z,34.18
2018-07-30T09:01:45.841Z,32.62
2018-07-30T09:02:45.847Z,33.31
2018-07-30T09:03:45.856Z,32.04
2018-07-30T09:04:45.605Z,30.88
2018-07-30T09:05:45.875Z,31.67
2018-07-30T09:06:45.876Z,31.48
2018-07-30T09:07:45.629Z,30.79
2018-07-30T09:08:45.637Z,30.2
2018-07-30T09:09:45.901Z,29.32
2018-07-30T09:10:45.905Z,30.59
2018-07-30T09:11:45.911Z,30.38
2018-07-30T09:12:45.789Z,31.46
2018-07-30T09:13:45.977Z,33.41
2018-07-30T09:14:45.937Z,33.23
2018-07-30T09:15:45.685Z,31.57
2018-07-30T09:16:45.691Z,31.57
2018-07-30T09:17:45.959Z,30.69
2018-07-30T09:18:45.709Z,30.79
2018-07-30T09:19:45.969Z,30.59
2018-07-30T09:20:45.981Z,29.42
2018-07-30T09:21:45.984Z,30
2018-07-30T09:22:45.739Z,29.32
2018-07-30T09:23:45.998Z,29.8
2018-07-30T09:24:45.750Z,29.6
2018-07-30T09:25:46.019Z,29.99
2018-07-30T09:26:46.071Z,29.99
2018-07-30T09:27:46.029Z,30
2018-07-30T09:28:46.039Z,30.79
2018-07-30T09:29:46.045Z,30.69
2018-07-30T09:30:46.054Z,30.12
2018-07-30T09:31:45.806Z,30.61
2018-07-30T09:32:46.267Z,29.45
2018-07-30T09:33:46.074Z,29.55
2018-07-30T09:34:46.082Z,29.64
2018-07-30T09:35:46.087Z,28.78
2018-07-30T09:36:46.097Z,28.86
2018-07-30T09:37:46.109Z,29.55
2018-07-30T09:38:46.205Z,30.04
2018-07-30T09:39:46.120Z,30.04
2018-07-30T09:40:46.125Z,29.64
2018-07-30T09:41:46.139Z,29.25
2018-07-30T09:42:46.139Z,29.36
2018-07-30T09:43:46.146Z,28.49
2018-07-30T09:44:46.230Z,27.61
2018-07-30T09:45:46.162Z,28.58
2018-07-30T09:46:46.171Z,28.18
2018-07-30T09:47:45.923Z,27.98
2018-07-30T09:48:46.188Z,28.67
2018-07-30T09:49:46.198Z,29.16
2018-07-30T09:50:45.945Z,28.75
2018-07-30T09:51:45.951Z,30.02
2018-07-30T09:52:46.217Z,28.85
2018-07-30T09:53:46.222Z,29.24
2018-07-30T09:54:45.975Z,29.13
2018-07-30T09:55:45.987Z,30.79
2018-07-30T09:56:46.245Z,30.32
2018-07-30T09:57:46.254Z,30.61
2018-07-30T09:58:46.004Z,31.8
2018-07-30T09:59:46.268Z,31.51
2018-07-30T10:00:46.018Z,31.11
2018-07-30T10:01:46.285Z,29.17
2018-07-30T10:02:46.294Z,29.46
2018-07-30T10:03:46.043Z,28.68
2018-07-30T10:04:46.307Z,29.07
2018-07-30T10:05:46.314Z,29.17
2018-07-30T10:06:46.320Z,28.68
2018-07-30T10:07:46.074Z,28.09
2018-07-30T10:08:46.080Z,28.88
2018-07-30T10:09:46.345Z,28.57
2018-07-30T10:10:46.356Z,27.69
2018-07-30T10:11:46.574Z,28.86
2018-07-30T10:12:46.366Z,28.96
2018-07-30T10:13:46.375Z,28.75
2018-07-30T10:14:46.383Z,28.36
2018-07-30T10:15:46.133Z,27.87
2018-07-30T10:16:46.409Z,28.75
2018-07-30T10:17:46.709Z,31.57
2018-07-30T10:18:46.456Z,31.1
2018-07-30T10:19:46.161Z,27.87
2018-07-30T10:20:46.169Z,27.87
2018-07-30T10:21:46.186Z,28.65
2018-07-30T10:22:46.455Z,30.51
2018-07-30T10:23:46.572Z,31.59
2018-07-30T10:24:46.455Z,29.93
2018-07-30T10:25:46.207Z,29.24
2018-07-30T10:26:46.473Z,30.88
2018-07-30T10:27:46.480Z,32.75
2018-07-30T10:28:46.495Z,33.8
2018-07-30T10:29:46.490Z,33.2
2018-07-30T10:30:46.792Z,32.81
2018-07-30T10:31:46.249Z,31.52
2018-07-30T10:32:46.257Z,30.65
2018-07-30T10:33:46.521Z,31.23
2018-07-30T10:34:46.530Z,31.35
2018-07-30T10:35:46.284Z,30.76
2018-07-30T10:36:46.547Z,31.64
2018-07-30T10:37:46.552Z,31.64
2018-07-30T10:38:46.570Z,30.68
2018-07-30T10:39:46.317Z,30.3
2018-07-30T10:40:46.315Z,30.49
2018-07-30T10:41:46.581Z,31.18
2018-07-30T10:42:46.586Z,32.07
2018-07-30T10:43:46.593Z,29.94
2018-07-30T10:44:46.605Z,30.23
2018-07-30T10:45:46.611Z,29.25
2018-07-30T10:46:46.359Z,29.04
2018-07-30T10:47:46.621Z,29.73
2018-07-30T10:48:46.629Z,28.94
2018-07-30T10:49:46.635Z,28.34
2018-07-30T10:50:46.390Z,29.03
2018-07-30T10:51:46.717Z,29.21
2018-07-30T10:52:46.404Z,29.41
2018-07-30T10:53:46.710Z,29.5
2018-07-30T10:54:46.673Z,30.18
2018-07-30T10:55:46.679Z,30.47
2018-07-30T10:56:46.686Z,32.32
2018-07-30T10:57:46.693Z,33.89
2018-07-30T10:58:46.700Z,30.86
2018-07-30T10:59:46.711Z,30.37
2018-07-30T11:00:46.715Z,30.96
2018-07-30T11:01:46.724Z,30.86
2018-07-30T11:02:46.730Z,30.86
2018-07-30T11:03:46.493Z,31.33
2018-07-30T11:04:46.747Z,30.66
2018-07-30T11:05:46.495Z,31.54
2018-07-30T11:06:46.761Z,31.33
2018-07-30T11:07:46.844Z,31.82
2018-07-30T11:08:46.515Z,32.7
2018-07-30T11:09:46.603Z,32.71
2018-07-30T11:10:46.806Z,33.98
2018-07-30T11:11:46.796Z,32.42
2018-07-30T11:12:46.798Z,31.54
2018-07-30T11:13:46.807Z,31.74
2018-07-30T11:14:46.941Z,31.45
2018-07-30T11:15:46.567Z,30.76
2018-07-30T11:16:46.839Z,29.98
2018-07-30T11:17:46.833Z,30.96
2018-07-30T11:18:46.584Z,30.96
2018-07-30T11:19:46.847Z,30.66
2018-07-30T11:20:46.608Z,30.18
2018-07-30T11:21:46.607Z,29.88
2018-07-30T11:22:46.870Z,30.18
2018-07-30T11:23:46.876Z,30.27
2018-07-30T11:24:46.629Z,32.23
2018-07-30T11:25:46.891Z,30.76
2018-07-30T11:26:46.900Z,32.32
2018-07-30T11:27:46.904Z,32.81
2018-07-30T11:28:46.911Z,31.84
2018-07-30T11:29:46.919Z,31.15
2018-07-30T11:30:46.924Z,31.45
2018-07-30T11:31:46.675Z,31.15
2018-07-30T11:32:46.940Z,33.5
2018-07-30T11:33:46.947Z,32.92
2018-07-30T11:34:46.957Z,32.23
2018-07-30T11:35:46.703Z,31.75
2018-07-30T11:36:46.968Z,31.85
2018-07-30T11:37:46.970Z,33.31
2018-07-30T11:38:46.725Z,35.66
2018-07-30T11:39:46.988Z,35.27
2018-07-30T11:40:46.995Z,37.22
2018-07-30T11:41:47.006Z,38.48
2018-07-30T11:42:47.018Z,37.01
2018-07-30T11:43:47.276Z,36.05
2018-07-30T11:44:47.024Z,33.7
2018-07-30T11:45:46.775Z,32.43
2018-07-30T11:46:47.037Z,31.07
2018-07-30T11:47:46.789Z,31.46
2018-07-30T11:48:47.203Z,31.85
2018-07-30T11:49:47.066Z,32.16
2018-07-30T11:50:47.069Z,31.57
2018-07-30T11:51:47.081Z,29.13
2018-07-30T11:52:47.098Z,28.93
2018-07-30T11:53:47.092Z,29.32
2018-07-30T11:54:46.854Z,29.61
2018-07-30T11:55:47.105Z,28.93
2018-07-30T11:56:46.856Z,28.34
2018-07-30T11:57:47.118Z,28.44
2018-07-30T11:58:47.128Z,29.34
2018-07-30T11:59:47.134Z,29.24
2018-07-30T12:00:46.889Z,29.52
2018-07-30T12:01:47.273Z,29.24
2018-07-30T12:02:47.158Z,30
2018-07-30T12:03:47.165Z,29.32
2018-07-30T12:04:47.174Z,30.2
2018-07-30T12:05:47.181Z,32.16
2018-07-30T12:06:47.227Z,30.79
2018-07-30T12:07:47.197Z,30.69
2018-07-30T12:08:47.290Z,31.48
2018-07-30T12:09:47.210Z,30.58
2018-07-30T12:10:47.219Z,31.26
2018-07-30T12:11:47.226Z,31.56
2018-07-30T12:12:47.240Z,31.65
2018-07-30T12:13:47.247Z,30.38
2018-07-30T12:14:47.259Z,30.19
2018-07-30T12:15:47.000Z,30.76
2018-07-30T12:16:47.265Z,33.4
2018-07-30T12:17:47.018Z,33.7
2018-07-30T12:18:47.309Z,32.24
2018-07-30T12:19:47.286Z,30.77
2018-07-30T12:20:47.393Z,30.87
2018-07-30T12:21:47.378Z,30.48
2018-07-30T12:22:47.309Z,30.09
2018-07-30T12:23:47.364Z,29.41
2018-07-30T12:24:47.089Z,30.09
2018-07-30T12:25:47.076Z,30.48
2018-07-30T12:26:47.385Z,30.76
2018-07-30T12:27:47.360Z,30.86
2018-07-30T12:28:47.353Z,30.87
2018-07-30T12:29:47.359Z,30.97
2018-07-30T12:30:47.366Z,31.87
2018-07-30T12:31:47.381Z,31.87
2018-07-30T12:32:47.384Z,32.16
2018-07-30T12:33:47.393Z,31.18
2018-07-30T12:34:47.395Z,31.67
2018-07-30T12:35:47.404Z,33.41
2018-07-30T12:36:47.412Z,33.7
2018-07-30T12:37:47.418Z,32.43
2018-07-30T12:38:47.168Z,31.75
2018-07-30T12:39:47.441Z,31.95
2018-07-30T12:40:47.447Z,32.42
2018-07-30T12:41:47.519Z,33.59
2018-07-30T12:42:47.454Z,31.84
2018-07-30T12:43:47.206Z,31.74
2018-07-30T12:44:47.249Z,31.93
2018-07-30T12:45:47.473Z,33.98
2018-07-30T12:46:47.482Z,32.81
2018-07-30T12:47:47.511Z,32.71
2018-07-30T12:48:47.547Z,31.52
2018-07-30T12:49:47.505Z,30.65
2018-07-30T12:50:47.543Z,31.13
2018-07-30T12:51:47.516Z,30.65
2018-07-30T12:52:47.523Z,30.65
2018-07-30T12:53:47.531Z,31.82
2018-07-30T12:54:47.548Z,34.65